DLH5M EDDN-EDDG
Flight info
| Callsign | DLH5M |
|---|---|
| Flight time | 0h 53m |
| Altitude | 22000 |
| Route | SULUS1G/28 SULUS L604 MASEK Z52 ARPEG Z850 HMM |
| Aircraft | A320/M-SDE3FGHIRWY/LB1 |
Departure
| Time | 2026-04-09 13:51 |
|---|---|
| Airport | Nuremberg Airport (EDDN) |
Arrival
| Time | 2026-04-09 14:45 |
|---|---|
| Airport | Münster Osnabrück Airport (EDDG) |
| Time | Latitude | Longitude | Altitude | Speed | Heading |
|---|---|---|---|---|---|
| 2026-04-09 13:06 | 49.49539 | 11.07586 | 1026 ft | 0 kts | 188° |
| 2026-04-09 13:38 | 49.49545 | 11.07587 | 1024 ft | 2 kts | 187° |
| 2026-04-09 13:38 | 49.49561 | 11.07590 | 1025 ft | 2 kts | 187° |
| 2026-04-09 13:38 | 49.49577 | 11.07594 | 1026 ft | 2 kts | 174° |
| 2026-04-09 13:39 | 49.49592 | 11.07592 | 1026 ft | 2 kts | 154° |
| 2026-04-09 13:39 | 49.49605 | 11.07577 | 1024 ft | 0 kts | 108° |
| 2026-04-09 13:39 | 49.49606 | 11.07564 | 1024 ft | 0 kts | 100° |
| 2026-04-09 13:42 | 49.49605 | 11.07577 | 1025 ft | 6 kts | 98° |
| 2026-04-09 13:42 | 49.49598 | 11.07642 | 1024 ft | 7 kts | 98° |
| 2026-04-09 13:42 | 49.49590 | 11.07733 | 1027 ft | 9 kts | 98° |
| 2026-04-09 13:42 | 49.49581 | 11.07816 | 1027 ft | 7 kts | 99° |
| 2026-04-09 13:43 | 49.49571 | 11.07914 | 1025 ft | 12 kts | 97° |
| 2026-04-09 13:43 | 49.49559 | 11.08045 | 1028 ft | 12 kts | 99° |
| 2026-04-09 13:43 | 49.49547 | 11.08161 | 1028 ft | 10 kts | 99° |
| 2026-04-09 13:43 | 49.49537 | 11.08255 | 1028 ft | 8 kts | 98° |
| 2026-04-09 13:44 | 49.49539 | 11.08320 | 1029 ft | 5 kts | 69° |
| 2026-04-09 13:44 | 49.49559 | 11.08348 | 1031 ft | 6 kts | 27° |
| 2026-04-09 13:44 | 49.49582 | 11.08354 | 1032 ft | 1 kts | 9° |
| 2026-04-09 13:45 | 49.49611 | 11.08420 | 1034 ft | 3 kts | 62° |
| 2026-04-09 13:45 | 49.49614 | 11.08434 | 1034 ft | 0 kts | 76° |
| 2026-04-09 13:45 | 49.49612 | 11.08454 | 1034 ft | 3 kts | 97° |
| 2026-04-09 13:45 | 49.49610 | 11.08477 | 1034 ft | 1 kts | 97° |
| 2026-04-09 13:46 | 49.49607 | 11.08516 | 1035 ft | 8 kts | 97° |
| 2026-04-09 13:46 | 49.49601 | 11.08590 | 1036 ft | 6 kts | 97° |
| 2026-04-09 13:46 | 49.49592 | 11.08670 | 1036 ft | 15 kts | 101° |
| 2026-04-09 13:46 | 49.49575 | 11.08834 | 1038 ft | 16 kts | 98° |
| 2026-04-09 13:47 | 49.49559 | 11.08999 | 1039 ft | 15 kts | 98° |
| 2026-04-09 13:47 | 49.49544 | 11.09155 | 1042 ft | 14 kts | 99° |
| 2026-04-09 13:47 | 49.49530 | 11.09285 | 1044 ft | 11 kts | 99° |
| 2026-04-09 13:47 | 49.49539 | 11.09377 | 1046 ft | 8 kts | 63° |
| 2026-04-09 13:48 | 49.49573 | 11.09450 | 1048 ft | 10 kts | 53° |
| 2026-04-09 13:48 | 49.49598 | 11.09503 | 1050 ft | 0 kts | 53° |
| 2026-04-09 13:49 | 49.49599 | 11.09503 | 1050 ft | 1 kts | 53° |
| 2026-04-09 13:49 | 49.49622 | 11.09550 | 1051 ft | 7 kts | 47° |
| 2026-04-09 13:50 | 49.49699 | 11.09530 | 1052 ft | 11 kts | 294° |
| 2026-04-09 13:50 | 49.49703 | 11.09501 | 1052 ft | 0 kts | 277° |
| 2026-04-09 13:50 | 49.49703 | 11.09495 | 1051 ft | 1 kts | 277° |
| 2026-04-09 13:50 | 49.49710 | 11.09419 | 1050 ft | 32 kts | 278° |
| 2026-04-09 13:51 | 49.49784 | 11.08668 | 1039 ft | 107 kts | 278° |
| 2026-04-09 13:51 | 49.49925 | 11.07227 | 1092 ft | 153 kts | 278° |
| 2026-04-09 13:51 | 49.50095 | 11.05615 | 1658 ft | 154 kts | 279° |
| 2026-04-09 13:51 | 49.50266 | 11.03971 | 2259 ft | 157 kts | 279° |
| 2026-04-09 13:52 | 49.50421 | 11.02256 | 2603 ft | 169 kts | 277° |
| 2026-04-09 13:52 | 49.50574 | 11.00372 | 2877 ft | 186 kts | 277° |
| 2026-04-09 13:52 | 49.50726 | 10.98332 | 3225 ft | 202 kts | 278° |
| 2026-04-09 13:52 | 49.50947 | 10.96060 | 3523 ft | 227 kts | 279° |
| 2026-04-09 13:53 | 49.51159 | 10.93530 | 3903 ft | 251 kts | 269° |
| 2026-04-09 13:53 | 49.50730 | 10.90856 | 4534 ft | 264 kts | 246° |
| 2026-04-09 13:53 | 49.49949 | 10.88270 | 5380 ft | 269 kts | 245° |
| 2026-04-09 13:53 | 49.49155 | 10.85686 | 6228 ft | 273 kts | 246° |
| 2026-04-09 13:54 | 49.48408 | 10.82981 | 6892 ft | 276 kts | 259° |
| 2026-04-09 13:54 | 49.48303 | 10.80076 | 7720 ft | 272 kts | 282° |
| 2026-04-09 13:54 | 49.48961 | 10.77381 | 8558 ft | 269 kts | 306° |
| 2026-04-09 13:54 | 49.50267 | 10.75344 | 9401 ft | 268 kts | 329° |
| 2026-04-09 13:55 | 49.51999 | 10.74303 | 10245 ft | 270 kts | 351° |
| 2026-04-09 13:55 | 49.53919 | 10.74147 | 10694 ft | 287 kts | 357° |
| 2026-04-09 13:55 | 49.55998 | 10.74090 | 10906 ft | 310 kts | 358° |
| 2026-04-09 13:55 | 49.58225 | 10.74047 | 11279 ft | 325 kts | 358° |
| 2026-04-09 13:56 | 49.60510 | 10.74005 | 11937 ft | 330 kts | 358° |
| 2026-04-09 13:56 | 49.62790 | 10.73896 | 12648 ft | 333 kts | 351° |
| 2026-04-09 13:56 | 49.65048 | 10.73093 | 13374 ft | 334 kts | 344° |
| 2026-04-09 13:56 | 49.67303 | 10.72148 | 14081 ft | 337 kts | 343° |
| 2026-04-09 13:57 | 49.69577 | 10.71176 | 14717 ft | 340 kts | 343° |
| 2026-04-09 13:57 | 49.71862 | 10.70192 | 15352 ft | 342 kts | 343° |
| 2026-04-09 13:57 | 49.74166 | 10.69196 | 15979 ft | 345 kts | 343° |
| 2026-04-09 13:57 | 49.76497 | 10.68191 | 16591 ft | 349 kts | 343° |
| 2026-04-09 13:58 | 49.78847 | 10.67182 | 17190 ft | 352 kts | 343° |
| 2026-04-09 13:58 | 49.81214 | 10.66169 | 17793 ft | 355 kts | 343° |
| 2026-04-09 13:58 | 49.83609 | 10.65147 | 18394 ft | 358 kts | 344° |
| 2026-04-09 13:58 | 49.86020 | 10.64120 | 18911 ft | 361 kts | 344° |
| 2026-04-09 13:59 | 49.88451 | 10.63082 | 19449 ft | 364 kts | 343° |
| 2026-04-09 13:59 | 49.90901 | 10.62032 | 19996 ft | 366 kts | 343° |
| 2026-04-09 13:59 | 49.93361 | 10.60973 | 20541 ft | 368 kts | 343° |
| 2026-04-09 13:59 | 49.95837 | 10.59905 | 21098 ft | 370 kts | 343° |
| 2026-04-09 14:00 | 49.98329 | 10.58835 | 21625 ft | 373 kts | 343° |
| 2026-04-09 14:00 | 50.00838 | 10.57759 | 22057 ft | 375 kts | 343° |
| 2026-04-09 14:00 | 50.03329 | 10.56686 | 22160 ft | 378 kts | 343° |
| 2026-04-09 14:00 | 50.05880 | 10.55581 | 22172 ft | 382 kts | 343° |
| 2026-04-09 14:01 | 50.08443 | 10.54466 | 22480 ft | 382 kts | 343° |
| 2026-04-09 14:01 | 50.11014 | 10.53349 | 23020 ft | 384 kts | 343° |
| 2026-04-09 14:01 | 50.13591 | 10.52231 | 23503 ft | 386 kts | 343° |
| 2026-04-09 14:01 | 50.16181 | 10.51107 | 23923 ft | 388 kts | 343° |
| 2026-04-09 14:02 | 50.18788 | 10.49970 | 24136 ft | 390 kts | 342° |
| 2026-04-09 14:02 | 50.21311 | 10.48431 | 24175 ft | 389 kts | 333° |
| 2026-04-09 14:02 | 50.23603 | 10.46196 | 24173 ft | 389 kts | 323° |
| 2026-04-09 14:02 | 50.25602 | 10.43333 | 24173 ft | 390 kts | 315° |
| 2026-04-09 14:03 | 50.27481 | 10.40278 | 24175 ft | 390 kts | 315° |
| 2026-04-09 14:03 | 50.29368 | 10.37235 | 24172 ft | 390 kts | 315° |
| 2026-04-09 14:03 | 50.31260 | 10.34196 | 24174 ft | 390 kts | 315° |
| 2026-04-09 14:03 | 50.33154 | 10.31153 | 24170 ft | 390 kts | 315° |
| 2026-04-09 14:04 | 50.35045 | 10.28104 | 24171 ft | 390 kts | 315° |
| 2026-04-09 14:04 | 50.36869 | 10.24952 | 24174 ft | 394 kts | 312° |
| 2026-04-09 14:04 | 50.38664 | 10.21683 | 24174 ft | 406 kts | 313° |
| 2026-04-09 14:04 | 50.40572 | 10.18352 | 24165 ft | 414 kts | 314° |
| 2026-04-09 14:05 | 50.42552 | 10.15048 | 24170 ft | 416 kts | 315° |
| 2026-04-09 14:05 | 50.44564 | 10.11780 | 24178 ft | 417 kts | 315° |
| 2026-04-09 14:05 | 50.46569 | 10.08481 | 24172 ft | 417 kts | 314° |
| 2026-04-09 14:05 | 50.48554 | 10.05152 | 24170 ft | 418 kts | 314° |
| 2026-04-09 14:06 | 50.50527 | 10.01792 | 24177 ft | 417 kts | 314° |
| 2026-04-09 14:06 | 50.52487 | 9.98424 | 24172 ft | 417 kts | 313° |
| 2026-04-09 14:06 | 50.54440 | 9.95046 | 24174 ft | 417 kts | 313° |
| 2026-04-09 14:06 | 50.56326 | 9.91645 | 24171 ft | 417 kts | 311° |
| 2026-04-09 14:07 | 50.58185 | 9.88140 | 24169 ft | 417 kts | 311° |
| 2026-04-09 14:07 | 50.60018 | 9.84597 | 24167 ft | 417 kts | 310° |
| 2026-04-09 14:07 | 50.61845 | 9.81044 | 24139 ft | 417 kts | 310° |
| 2026-04-09 14:07 | 50.63675 | 9.77497 | 24140 ft | 417 kts | 310° |
| 2026-04-09 14:08 | 50.65515 | 9.73962 | 24143 ft | 418 kts | 310° |
| 2026-04-09 14:08 | 50.67369 | 9.70423 | 24139 ft | 418 kts | 310° |
| 2026-04-09 14:08 | 50.69224 | 9.66891 | 24141 ft | 418 kts | 310° |
| 2026-04-09 14:08 | 50.71067 | 9.63330 | 24139 ft | 419 kts | 307° |
| 2026-04-09 14:09 | 50.72576 | 9.59386 | 24141 ft | 421 kts | 297° |
| 2026-04-09 14:09 | 50.73574 | 9.55040 | 24142 ft | 424 kts | 286° |
| 2026-04-09 14:09 | 50.74204 | 9.50484 | 24145 ft | 425 kts | 284° |
| 2026-04-09 14:09 | 50.74817 | 9.45924 | 24148 ft | 425 kts | 284° |
| 2026-04-09 14:10 | 50.75430 | 9.41363 | 24144 ft | 425 kts | 284° |
| 2026-04-09 14:10 | 50.76048 | 9.36801 | 24120 ft | 425 kts | 284° |
| 2026-04-09 14:10 | 50.76671 | 9.32232 | 24128 ft | 425 kts | 284° |
| 2026-04-09 14:10 | 50.77291 | 9.27665 | 24127 ft | 426 kts | 284° |
| 2026-04-09 14:11 | 50.77909 | 9.23087 | 24130 ft | 426 kts | 284° |
| 2026-04-09 14:11 | 50.78529 | 9.18498 | 24135 ft | 426 kts | 284° |
| 2026-04-09 14:11 | 50.79136 | 9.13979 | 24139 ft | 426 kts | 284° |
| 2026-04-09 14:11 | 50.79748 | 9.09394 | 24137 ft | 427 kts | 284° |
| 2026-04-09 14:12 | 50.80355 | 9.04794 | 24140 ft | 427 kts | 284° |
| 2026-04-09 14:12 | 50.80958 | 9.00203 | 24138 ft | 427 kts | 284° |
| 2026-04-09 14:12 | 50.81560 | 8.95603 | 24141 ft | 427 kts | 284° |
| 2026-04-09 14:12 | 50.82179 | 8.91010 | 24138 ft | 426 kts | 287° |
| 2026-04-09 14:13 | 50.83154 | 8.86614 | 24140 ft | 423 kts | 296° |
| 2026-04-09 14:13 | 50.84512 | 8.82491 | 24137 ft | 423 kts | 300° |
| 2026-04-09 14:13 | 50.85897 | 8.78376 | 24135 ft | 423 kts | 299° |
| 2026-04-09 14:13 | 50.87271 | 8.74266 | 24134 ft | 423 kts | 299° |
| 2026-04-09 14:14 | 50.88180 | 8.71532 | 24136 ft | 423 kts | 299° |
| 2026-04-09 14:14 | 50.89546 | 8.67411 | 24134 ft | 423 kts | 299° |
| 2026-04-09 14:14 | 50.90915 | 8.63275 | 24134 ft | 423 kts | 299° |
| 2026-04-09 14:14 | 50.92284 | 8.59140 | 24135 ft | 423 kts | 299° |
| 2026-04-09 14:15 | 50.93650 | 8.55007 | 24135 ft | 423 kts | 299° |
| 2026-04-09 14:15 | 50.95015 | 8.50871 | 24136 ft | 423 kts | 299° |
| 2026-04-09 14:15 | 50.96382 | 8.46730 | 24120 ft | 423 kts | 299° |
| 2026-04-09 14:15 | 50.97744 | 8.42588 | 24123 ft | 423 kts | 299° |
| 2026-04-09 14:16 | 50.99100 | 8.38455 | 24127 ft | 423 kts | 298° |
| 2026-04-09 14:16 | 51.00553 | 8.34408 | 24126 ft | 421 kts | 306° |
| 2026-04-09 14:16 | 51.02436 | 8.30859 | 24117 ft | 420 kts | 316° |
| 2026-04-09 14:16 | 51.04685 | 8.28002 | 24127 ft | 420 kts | 327° |
| 2026-04-09 14:17 | 51.07220 | 8.25686 | 24123 ft | 421 kts | 330° |
| 2026-04-09 14:17 | 51.09778 | 8.23413 | 24118 ft | 421 kts | 330° |
| 2026-04-09 14:17 | 51.12334 | 8.21139 | 24121 ft | 421 kts | 330° |
| 2026-04-09 14:17 | 51.14856 | 8.18895 | 24036 ft | 407 kts | 330° |
| 2026-04-09 14:18 | 51.17283 | 8.16730 | 23686 ft | 396 kts | 330° |
| 2026-04-09 14:18 | 51.19673 | 8.14591 | 23076 ft | 391 kts | 329° |
| 2026-04-09 14:18 | 51.22036 | 8.12470 | 22476 ft | 387 kts | 329° |
| 2026-04-09 14:18 | 51.24372 | 8.10372 | 21883 ft | 384 kts | 329° |
| 2026-04-09 14:19 | 51.26690 | 8.08296 | 21302 ft | 381 kts | 329° |
| 2026-04-09 14:19 | 51.28996 | 8.06229 | 20744 ft | 379 kts | 329° |
| 2026-04-09 14:19 | 51.31287 | 8.04171 | 20202 ft | 376 kts | 329° |
| 2026-04-09 14:19 | 51.33564 | 8.02121 | 19657 ft | 375 kts | 329° |
| 2026-04-09 14:20 | 51.35828 | 8.00080 | 19121 ft | 373 kts | 329° |
| 2026-04-09 14:20 | 51.38079 | 7.98048 | 18600 ft | 371 kts | 329° |
| 2026-04-09 14:20 | 51.40324 | 7.96025 | 18054 ft | 368 kts | 329° |
| 2026-04-09 14:20 | 51.42556 | 7.94014 | 17435 ft | 368 kts | 329° |
| 2026-04-09 14:21 | 51.44781 | 7.92012 | 16834 ft | 366 kts | 329° |
| 2026-04-09 14:21 | 51.47002 | 7.90012 | 16241 ft | 365 kts | 329° |
| 2026-04-09 14:21 | 51.49221 | 7.88040 | 15660 ft | 364 kts | 330° |
| 2026-04-09 14:21 | 51.51475 | 7.86195 | 15211 ft | 360 kts | 332° |
| 2026-04-09 14:22 | 51.53691 | 7.84485 | 15087 ft | 347 kts | 333° |
| 2026-04-09 14:22 | 51.55861 | 7.82849 | 15079 ft | 342 kts | 333° |
| 2026-04-09 14:22 | 51.57975 | 7.81259 | 14674 ft | 339 kts | 333° |
| 2026-04-09 14:22 | 51.60101 | 7.79639 | 14304 ft | 337 kts | 333° |
| 2026-04-09 14:23 | 51.62211 | 7.78007 | 13936 ft | 335 kts | 332° |
| 2026-04-09 14:23 | 51.64299 | 7.76379 | 13551 ft | 333 kts | 332° |
| 2026-04-09 14:23 | 51.66373 | 7.74746 | 13146 ft | 331 kts | 332° |
| 2026-04-09 14:23 | 51.68438 | 7.73115 | 12754 ft | 328 kts | 332° |
| 2026-04-09 14:24 | 51.70472 | 7.71514 | 12366 ft | 323 kts | 332° |
| 2026-04-09 14:24 | 51.72476 | 7.69939 | 11985 ft | 318 kts | 332° |
| 2026-04-09 14:24 | 51.74457 | 7.68386 | 11607 ft | 314 kts | 332° |
| 2026-04-09 14:24 | 51.76406 | 7.66855 | 11233 ft | 310 kts | 332° |
| 2026-04-09 14:25 | 51.78332 | 7.65337 | 10864 ft | 306 kts | 332° |
| 2026-04-09 14:25 | 51.80238 | 7.63832 | 10511 ft | 303 kts | 332° |
| 2026-04-09 14:25 | 51.82122 | 7.62344 | 10154 ft | 300 kts | 332° |
| 2026-04-09 14:25 | 51.83985 | 7.60869 | 9774 ft | 296 kts | 332° |
| 2026-04-09 14:26 | 51.85803 | 7.59426 | 9382 ft | 293 kts | 332° |
| 2026-04-09 14:26 | 51.87627 | 7.57975 | 8992 ft | 291 kts | 332° |
| 2026-04-09 14:26 | 51.89435 | 7.56539 | 8598 ft | 288 kts | 332° |
| 2026-04-09 14:26 | 51.91228 | 7.55115 | 8219 ft | 285 kts | 332° |
| 2026-04-09 14:27 | 51.93002 | 7.53706 | 7842 ft | 283 kts | 332° |
| 2026-04-09 14:27 | 51.94761 | 7.52308 | 7466 ft | 280 kts | 332° |
| 2026-04-09 14:27 | 51.96504 | 7.50924 | 7104 ft | 278 kts | 332° |
| 2026-04-09 14:27 | 51.98233 | 7.49547 | 6741 ft | 276 kts | 332° |
| 2026-04-09 14:28 | 51.99944 | 7.48182 | 6369 ft | 273 kts | 332° |
| 2026-04-09 14:28 | 52.01626 | 7.46841 | 5981 ft | 263 kts | 332° |
| 2026-04-09 14:28 | 52.03325 | 7.45945 | 5638 ft | 251 kts | 349° |
| 2026-04-09 14:28 | 52.05035 | 7.45874 | 5298 ft | 243 kts | 4° |
| 2026-04-09 14:29 | 52.06664 | 7.46548 | 4777 ft | 244 kts | 20° |
| 2026-04-09 14:29 | 52.08152 | 7.47961 | 4122 ft | 251 kts | 38° |
| 2026-04-09 14:29 | 52.09328 | 7.50038 | 3673 ft | 248 kts | 56° |
| 2026-04-09 14:29 | 52.10074 | 7.52504 | 3188 ft | 245 kts | 72° |
| 2026-04-09 14:30 | 52.10632 | 7.55128 | 2782 ft | 246 kts | 72° |
| 2026-04-09 14:30 | 52.11227 | 7.57971 | 3065 ft | 289 kts | 72° |
| 2026-04-09 14:30 | 52.11896 | 7.61244 | 3479 ft | 316 kts | 72° |
| 2026-04-09 14:30 | 52.12548 | 7.64497 | 3816 ft | 286 kts | 72° |
| 2026-04-09 14:31 | 52.13154 | 7.67485 | 4070 ft | 274 kts | 71° |
| 2026-04-09 14:31 | 52.13788 | 7.70409 | 4360 ft | 275 kts | 70° |
| 2026-04-09 14:31 | 52.14446 | 7.73362 | 4405 ft | 279 kts | 69° |
| 2026-04-09 14:31 | 52.15100 | 7.76292 | 4573 ft | 275 kts | 69° |
| 2026-04-09 14:32 | 52.15754 | 7.79229 | 4833 ft | 278 kts | 69° |
| 2026-04-09 14:32 | 52.16207 | 7.82307 | 4989 ft | 282 kts | 88° |
| 2026-04-09 14:32 | 52.15906 | 7.85437 | 5031 ft | 281 kts | 112° |
| 2026-04-09 14:32 | 52.14869 | 7.88083 | 5036 ft | 277 kts | 137° |
| 2026-04-09 14:33 | 52.13295 | 7.89832 | 5035 ft | 274 kts | 160° |
| 2026-04-09 14:33 | 52.11452 | 7.90454 | 5037 ft | 271 kts | 183° |
| 2026-04-09 14:33 | 52.09628 | 7.89888 | 5037 ft | 267 kts | 205° |
| 2026-04-09 14:33 | 52.08042 | 7.88351 | 5037 ft | 264 kts | 222° |
| 2026-04-09 14:34 | 52.06701 | 7.86329 | 5035 ft | 263 kts | 227° |
| 2026-04-09 14:34 | 52.05418 | 7.84227 | 5033 ft | 260 kts | 227° |
| 2026-04-09 14:34 | 52.04308 | 7.82051 | 5028 ft | 240 kts | 242° |
| 2026-04-09 14:34 | 52.03556 | 7.79747 | 4884 ft | 229 kts | 245° |
| 2026-04-09 14:35 | 52.02854 | 7.77433 | 4685 ft | 222 kts | 245° |
| 2026-04-09 14:35 | 52.02193 | 7.75203 | 4505 ft | 222 kts | 245° |
| 2026-04-09 14:35 | 52.01532 | 7.72939 | 4322 ft | 221 kts | 245° |
| 2026-04-09 14:35 | 52.00880 | 7.70677 | 4153 ft | 220 kts | 245° |
| 2026-04-09 14:36 | 52.00233 | 7.68422 | 3977 ft | 220 kts | 245° |
| 2026-04-09 14:36 | 51.99597 | 7.66168 | 3802 ft | 219 kts | 245° |
| 2026-04-09 14:36 | 51.98975 | 7.63929 | 3613 ft | 217 kts | 245° |
| 2026-04-09 14:36 | 51.98360 | 7.61688 | 3422 ft | 219 kts | 245° |
| 2026-04-09 14:37 | 51.97747 | 7.59415 | 3143 ft | 220 kts | 245° |
| 2026-04-09 14:37 | 51.97326 | 7.57047 | 3014 ft | 219 kts | 261° |
| 2026-04-09 14:37 | 51.97185 | 7.54663 | 3009 ft | 206 kts | 264° |
| 2026-04-09 14:37 | 51.97081 | 7.52382 | 3012 ft | 200 kts | 264° |
| 2026-04-09 14:38 | 51.97001 | 7.50145 | 3013 ft | 199 kts | 273° |
| 2026-04-09 14:38 | 51.97438 | 7.48021 | 3022 ft | 202 kts | 300° |
| 2026-04-09 14:38 | 51.98261 | 7.46177 | 3017 ft | 201 kts | 310° |
| 2026-04-09 14:38 | 51.99360 | 7.44921 | 3033 ft | 189 kts | 339° |
| 2026-04-09 14:39 | 52.00578 | 7.44441 | 3011 ft | 170 kts | 346° |
| 2026-04-09 14:39 | 52.01683 | 7.44054 | 3012 ft | 159 kts | 346° |
| 2026-04-09 14:39 | 52.02752 | 7.43678 | 3007 ft | 156 kts | 346° |
| 2026-04-09 14:39 | 52.03815 | 7.43303 | 3016 ft | 156 kts | 346° |
| 2026-04-09 14:40 | 52.04913 | 7.42914 | 3020 ft | 169 kts | 346° |
| 2026-04-09 14:40 | 52.06092 | 7.42717 | 3018 ft | 172 kts | 4° |
| 2026-04-09 14:40 | 52.07243 | 7.43259 | 3016 ft | 173 kts | 28° |
| 2026-04-09 14:40 | 52.08174 | 7.44492 | 2960 ft | 174 kts | 52° |
| 2026-04-09 14:41 | 52.08730 | 7.46216 | 2814 ft | 172 kts | 73° |
| 2026-04-09 14:41 | 52.09117 | 7.48027 | 2599 ft | 166 kts | 73° |
| 2026-04-09 14:41 | 52.09482 | 7.49733 | 2386 ft | 153 kts | 73° |
| 2026-04-09 14:41 | 52.09825 | 7.51304 | 2192 ft | 145 kts | 73° |
| 2026-04-09 14:42 | 52.10167 | 7.52807 | 2018 ft | 139 kts | 73° |
| 2026-04-09 14:42 | 52.10502 | 7.54277 | 1883 ft | 137 kts | 74° |
| 2026-04-09 14:42 | 52.10788 | 7.55745 | 1681 ft | 135 kts | 76° |
| 2026-04-09 14:42 | 52.11071 | 7.57209 | 1450 ft | 136 kts | 71° |
| 2026-04-09 14:43 | 52.11399 | 7.58644 | 1270 ft | 136 kts | 73° |
| 2026-04-09 14:43 | 52.11707 | 7.60096 | 1100 ft | 135 kts | 75° |
| 2026-04-09 14:43 | 52.11992 | 7.61536 | 930 ft | 133 kts | 75° |
| 2026-04-09 14:43 | 52.12293 | 7.62963 | 706 ft | 134 kts | 73° |
| 2026-04-09 14:44 | 52.12600 | 7.64381 | 565 ft | 133 kts | 73° |
| 2026-04-09 14:44 | 52.12895 | 7.65808 | 377 ft | 135 kts | 73° |
| 2026-04-09 14:44 | 52.13197 | 7.67221 | 183 ft | 129 kts | 74° |
| 2026-04-09 14:44 | 52.13445 | 7.68409 | 170 ft | 79 kts | 71° |
| 2026-04-09 14:45 | 52.13586 | 7.69079 | 171 ft | 55 kts | 72° |
| 2026-04-09 14:45 | 52.13705 | 7.69623 | 169 ft | 49 kts | 69° |
| 2026-04-09 14:45 | 52.13737 | 7.70004 | 164 ft | 25 kts | 150° |
| 2026-04-09 14:45 | 52.13601 | 7.69936 | 165 ft | 26 kts | 239° |
| 2026-04-09 14:46 | 52.13500 | 7.69475 | 167 ft | 42 kts | 252° |
| 2026-04-09 14:46 | 52.13431 | 7.69231 | 165 ft | 6 kts | 193° |
| 2026-04-09 14:46 | 52.13388 | 7.69245 | 165 ft | 6 kts | 168° |
| 2026-04-09 14:46 | 52.13351 | 7.69266 | 165 ft | 5 kts | 160° |
| 2026-04-09 14:47 | 52.13309 | 7.69291 | 166 ft | 8 kts | 160° |
| 2026-04-09 14:47 | 52.13252 | 7.69327 | 167 ft | 9 kts | 152° |
| 2026-04-09 14:47 | 52.13244 | 7.69405 | 167 ft | 7 kts | 84° |
| 2026-04-09 14:47 | 52.13238 | 7.69416 | 167 ft | 2 kts | 143° |
| 2026-04-09 14:48 | 52.13188 | 7.69398 | 167 ft | 8 kts | 197° |
| 2026-04-09 14:48 | 52.13190 | 7.69400 | 167 ft | 8 kts | 256° |
| 2026-04-09 14:48 | 52.13194 | 7.69474 | 167 ft | 8 kts | 197° |
| 2026-04-09 14:48 | 52.13190 | 7.69471 | 168 ft | 4 kts | 201° |
| 2026-04-09 14:49 | 52.13187 | 7.69469 | 168 ft | 0 kts | 201° |